SAEZ/EZE METAR and TAF weather

Enter ICAO airport designator
Station Type Date Time Source
SAEZ METAR 2019/12/08 07:00 UTC NOAA

SAEZ 080700Z 33004KT CAVOK 18/09 Q1010 NOSIG


Station Type Date Time Source
SAEZ Decoded METAR 2019/12/08 07:00 UTC NOAA

Ezeiza Aerodrome, Argentina (SAEZ) 34-49S 058-32W 20M
Dec 08, 2019 - 02:00 AM EST / 2019.12.08 0700 UTC
Wind: from the NNW (330 degrees) at 5 MPH (4 KT):0
Visibility: greater than 7 mile(s):0
Temperature: 64 F (18 C)
Dew Point: 48 F (9 C)
Relative Humidity: 55%
Pressure (altimeter): 29.83 in. Hg (1010 hPa)
ob: SAEZ 080700Z 33004KT CAVOK 18/09 Q1010 NOSIG
cycle: 7

Station Type Date Time Source
SAEZ TAF 2019/12/08 06:09 UTC NOAA

TAF SAEZ 080500Z 0806/0906 04008KT CAVOK TX31/0818Z TN16/0809Z
BECMG 0811/0813 33012KT FEW040 SCT200 PROB30
TEMPO 0813/0817 -SHRA FEW045TCU SCT070
BECMG 0821/0823 35008KT CAVOK

Example: see airport list